createdAt,value
2019-03-06T00:01:57.043Z,96.02
2019-03-06T00:03:57.179Z,95.63
2019-03-06T00:05:57.065Z,95.87
2019-03-06T00:07:57.207Z,95.96
2019-03-06T00:09:57.430Z,95.89
2019-03-06T00:11:57.305Z,95.83
2019-03-06T00:13:57.322Z,96.05
2019-03-06T00:15:57.053Z,95.68
2019-03-06T00:17:57.059Z,95.89
2019-03-06T00:19:57.013Z,95.75
2019-03-06T00:21:56.942Z,95.60
2019-03-06T00:23:57.091Z,95.75
2019-03-06T00:25:57.184Z,95.39
2019-03-06T00:27:57.069Z,95.11
2019-03-06T00:29:57.205Z,95.33
2019-03-06T00:31:57.095Z,95.43
2019-03-06T00:33:57.229Z,95.25
2019-03-06T00:35:57.247Z,95.16
2019-03-06T00:37:57.252Z,95.29
2019-03-06T00:39:57.209Z,95.03
2019-03-06T00:41:57.074Z,94.99
2019-03-06T00:43:57.290Z,95.12
2019-03-06T00:45:57.714Z,95.14
2019-03-06T00:47:57.310Z,95.20
2019-03-06T00:49:57.324Z,95.06
2019-03-06T00:51:57.744Z,95.27
2019-03-06T00:53:57.137Z,95.38
2019-03-06T00:55:57.458Z,95.45
2019-03-06T00:57:57.098Z,95.29
2019-03-06T00:59:57.055Z,95.54
2019-03-06T01:01:57.193Z,95.27
2019-03-06T01:03:57.003Z,95.64
2019-03-06T01:05:57.415Z,95.53
2019-03-06T01:07:57.226Z,95.33
2019-03-06T01:09:57.236Z,95.22
2019-03-06T01:11:57.143Z,95.43
2019-03-06T01:13:57.183Z,95.31
2019-03-06T01:15:57.277Z,95.41
2019-03-06T01:17:57.167Z,96.00
2019-03-06T01:19:57.223Z,95.74
2019-03-06T01:21:57.304Z,96.04
2019-03-06T01:23:57.209Z,95.89
2019-03-06T01:25:57.328Z,96.09
2019-03-06T01:27:57.170Z,96.05
2019-03-06T01:29:57.352Z,95.87
2019-03-06T01:31:57.305Z,96.35
2019-03-06T01:33:56.965Z,95.83
2019-03-06T01:35:57.094Z,95.64
2019-03-06T01:37:57.197Z,96.09
2019-03-06T01:39:57.401Z,95.83
2019-03-06T01:41:57.116Z,96.16
2019-03-06T01:43:57.136Z,96.42
2019-03-06T01:45:56.999Z,95.98
2019-03-06T01:47:57.247Z,96.40
2019-03-06T01:49:57.469Z,96.23
2019-03-06T01:51:57.223Z,96.43
2019-03-06T01:53:57.213Z,95.58
2019-03-06T01:55:57.502Z,95.87
2019-03-06T01:57:57.244Z,96.00
2019-03-06T01:59:57.214Z,96.26
2019-03-06T02:01:57.330Z,95.97
2019-03-06T02:03:57.485Z,96.53
2019-03-06T02:05:57.358Z,96.24
2019-03-06T02:07:57.366Z,95.95
2019-03-06T02:09:57.375Z,96.08
2019-03-06T02:11:57.285Z,96.07
2019-03-06T02:13:57.191Z,96.50
2019-03-06T02:15:57.213Z,96.51
2019-03-06T02:17:57.217Z,96.44
2019-03-06T02:19:57.227Z,96.30
2019-03-06T02:21:57.048Z,96.30
2019-03-06T02:23:57.453Z,95.93
2019-03-06T02:25:57.264Z,96.35
2019-03-06T02:27:57.279Z,96.29
2019-03-06T02:29:57.208Z,96.55
2019-03-06T02:31:57.306Z,96.10
2019-03-06T02:33:57.317Z,96.40
2019-03-06T02:35:57.044Z,96.38
2019-03-06T02:37:57.242Z,96.18
2019-03-06T02:39:57.283Z,96.75
2019-03-06T02:41:57.363Z,96.76
2019-03-06T02:43:57.368Z,96.65
2019-03-06T02:45:57.787Z,96.35
2019-03-06T02:47:57.321Z,96.76
2019-03-06T02:49:57.285Z,96.32
2019-03-06T02:51:57.365Z,96.43
2019-03-06T02:53:57.336Z,96.83
2019-03-06T02:55:57.466Z,96.63
2019-03-06T02:57:57.243Z,96.69
2019-03-06T02:59:57.153Z,96.54
2019-03-06T03:01:57.369Z,96.69
2019-03-06T03:03:57.283Z,96.84
2019-03-06T03:05:57.293Z,96.91
2019-03-06T03:07:57.196Z,97.14
2019-03-06T03:09:57.230Z,96.65
2019-03-06T03:11:57.198Z,96.80
2019-03-06T03:13:57.255Z,96.88
2019-03-06T03:15:57.275Z,97.01
2019-03-06T03:17:57.248Z,96.83
2019-03-06T03:19:57.372Z,96.58
2019-03-06T03:21:57.162Z,96.92
2019-03-06T03:23:57.333Z,96.88
2019-03-06T03:25:57.327Z,96.99
2019-03-06T03:27:57.368Z,96.84
2019-03-06T03:29:57.153Z,96.60
2019-03-06T03:31:57.415Z,96.67
2019-03-06T03:33:57.664Z,97.16
2019-03-06T03:35:57.385Z,96.86
2019-03-06T03:37:57.274Z,96.65
2019-03-06T03:39:57.060Z,96.91
2019-03-06T03:41:57.182Z,96.98
2019-03-06T03:43:57.519Z,96.95
2019-03-06T03:45:57.242Z,96.88
2019-03-06T03:47:57.225Z,96.79
2019-03-06T03:49:57.548Z,96.76
2019-03-06T03:51:57.124Z,96.87
2019-03-06T03:53:57.254Z,96.76
2019-03-06T03:55:57.379Z,96.87
2019-03-06T03:57:57.365Z,96.79
2019-03-06T03:59:57.161Z,96.81
2019-03-06T04:01:57.420Z,96.85
2019-03-06T04:03:57.381Z,96.91
2019-03-06T04:05:57.438Z,96.76
2019-03-06T04:07:57.364Z,96.90
2019-03-06T04:09:57.462Z,96.71
2019-03-06T04:11:57.877Z,96.61
2019-03-06T04:13:57.405Z,96.82
2019-03-06T04:15:57.096Z,96.85
2019-03-06T04:17:57.317Z,96.71
2019-03-06T04:19:57.313Z,96.70
2019-03-06T04:21:57.334Z,96.76
2019-03-06T04:23:57.263Z,96.89
2019-03-06T04:25:57.350Z,96.47
2019-03-06T04:27:57.772Z,96.70
2019-03-06T04:29:57.268Z,96.63
2019-03-06T04:31:57.379Z,96.52
2019-03-06T04:33:57.396Z,96.53
2019-03-06T04:35:57.323Z,96.30
2019-03-06T04:37:57.824Z,96.58
2019-03-06T04:39:57.358Z,96.47
2019-03-06T04:41:57.440Z,96.34
2019-03-06T04:43:57.449Z,96.66
2019-03-06T04:45:57.262Z,96.50
2019-03-06T04:47:57.477Z,96.41
2019-03-06T04:49:57.612Z,96.39
2019-03-06T04:51:57.428Z,96.55
2019-03-06T04:53:57.507Z,96.49
2019-03-06T04:55:57.115Z,96.65
2019-03-06T04:57:57.530Z,97.02
2019-03-06T04:59:57.238Z,96.67
2019-03-06T05:01:57.438Z,96.51
2019-03-06T05:03:57.366Z,96.97
2019-03-06T05:06:00.572Z,96.89
2019-03-06T05:07:57.380Z,96.91
2019-03-06T05:09:57.322Z,96.94
2019-03-06T05:11:57.339Z,96.76
2019-03-06T05:13:57.420Z,96.90
2019-03-06T05:15:57.387Z,96.58
2019-03-06T05:17:57.443Z,96.91
2019-03-06T05:19:57.454Z,96.72
2019-03-06T05:21:57.680Z,97.04
2019-03-06T05:23:57.473Z,97.17
2019-03-06T05:25:57.487Z,97.09
2019-03-06T05:27:57.502Z,97.16
2019-03-06T05:29:57.713Z,97.00
2019-03-06T05:31:57.444Z,97.06
2019-03-06T05:33:57.352Z,97.18
2019-03-06T05:35:57.243Z,97.53
2019-03-06T05:37:57.488Z,97.40
2019-03-06T05:39:57.367Z,97.57
2019-03-06T05:41:57.375Z,97.40
2019-03-06T05:43:57.389Z,97.53
2019-03-06T05:45:57.177Z,97.40
2019-03-06T05:47:57.293Z,97.34
2019-03-06T05:49:57.428Z,97.54
2019-03-06T05:51:57.431Z,97.48
2019-03-06T05:53:57.376Z,97.45
2019-03-06T05:55:57.457Z,97.42
2019-03-06T05:57:57.476Z,97.29
2019-03-06T05:59:57.293Z,97.72
2019-03-06T06:01:57.399Z,97.91
2019-03-06T06:03:57.509Z,97.84
2019-03-06T06:05:57.255Z,97.99
2019-03-06T06:07:57.745Z,98.15
2019-03-06T06:10:00.335Z,98.26
2019-03-06T06:11:57.446Z,98.28
2019-03-06T06:13:57.468Z,98.45
2019-03-06T06:15:57.176Z,98.35
2019-03-06T06:17:57.381Z,98.68
2019-03-06T06:19:57.422Z,98.44
2019-03-06T06:21:57.417Z,98.51
2019-03-06T06:23:57.543Z,98.57
2019-03-06T06:25:57.424Z,98.76
2019-03-06T06:27:57.204Z,98.91
2019-03-06T06:29:57.451Z,98.49
2019-03-06T06:31:57.356Z,99.00
2019-03-06T06:33:57.473Z,98.99
2019-03-06T06:35:58.211Z,98.87
2019-03-06T06:37:57.501Z,98.64
2019-03-06T06:39:57.478Z,99.10
2019-03-06T06:41:57.433Z,99.03
2019-03-06T06:43:57.399Z,99.17
2019-03-06T06:45:57.542Z,99.02
2019-03-06T06:47:57.758Z,98.73
2019-03-06T06:49:57.508Z,98.70
2019-03-06T06:51:57.505Z,98.59
2019-03-06T06:53:57.388Z,99.15
2019-03-06T06:55:57.396Z,98.49
2019-03-06T06:57:57.409Z,98.72
2019-03-06T06:59:57.328Z,98.42
2019-03-06T07:01:57.322Z,99.02
2019-03-06T07:03:57.400Z,98.75
2019-03-06T07:05:57.662Z,98.94
2019-03-06T07:07:57.359Z,98.75
2019-03-06T07:09:57.490Z,98.36
2019-03-06T07:11:57.493Z,98.89
2019-03-06T07:13:57.502Z,98.62
2019-03-06T07:15:57.511Z,98.59
2019-03-06T07:17:57.413Z,98.08
2019-03-06T07:19:57.412Z,97.81
2019-03-06T07:21:57.751Z,97.12
2019-03-06T07:23:57.555Z,96.86
2019-03-06T07:25:57.569Z,96.04
2019-03-06T07:27:57.582Z,95.29
2019-03-06T07:29:57.331Z,94.99
2019-03-06T07:31:57.402Z,94.03
2019-03-06T07:33:57.415Z,93.68
2019-03-06T07:35:57.329Z,93.11
2019-03-06T07:37:57.431Z,92.36
2019-03-06T07:39:57.215Z,91.70
2019-03-06T07:41:57.360Z,90.73
2019-03-06T07:43:57.475Z,89.05
2019-03-06T07:45:57.278Z,89.34
2019-03-06T07:47:57.495Z,89.14
2019-03-06T07:49:57.509Z,88.55
2019-03-06T07:51:57.519Z,88.09
2019-03-06T07:53:57.425Z,88.12
2019-03-06T07:55:57.416Z,88.76
2019-03-06T07:57:57.552Z,89.20
2019-03-06T07:59:57.477Z,89.25
2019-03-06T08:01:57.462Z,89.30
2019-03-06T08:03:57.997Z,89.21
2019-03-06T08:05:57.537Z,88.81
2019-03-06T08:07:57.533Z,88.60
2019-03-06T08:09:57.620Z,88.27
2019-03-06T08:11:57.629Z,88.38
2019-03-06T08:13:57.435Z,88.75
2019-03-06T08:15:57.402Z,88.73
2019-03-06T08:17:57.349Z,88.70
2019-03-06T08:19:57.359Z,87.86
2019-03-06T08:21:57.485Z,88.04
2019-03-06T08:23:57.407Z,87.76
2019-03-06T08:25:57.602Z,87.97
2019-03-06T08:27:57.521Z,87.64
2019-03-06T08:29:57.412Z,87.29
2019-03-06T08:31:57.545Z,87.83
2019-03-06T08:33:57.474Z,87.73
2019-03-06T08:35:57.497Z,87.63
2019-03-06T08:37:57.329Z,87.26
2019-03-06T08:39:57.540Z,87.18
2019-03-06T08:41:57.599Z,87.18
2019-03-06T08:43:57.367Z,87.61
2019-03-06T08:45:57.626Z,86.86
2019-03-06T08:47:57.561Z,86.45
2019-03-06T08:49:57.594Z,86.39
2019-03-06T08:51:57.586Z,85.96
2019-03-06T08:53:57.531Z,85.08
2019-03-06T08:55:57.403Z,84.12
2019-03-06T08:57:57.381Z,83.19
2019-03-06T08:59:57.631Z,82.22
2019-03-06T09:02:00.958Z,82.66
2019-03-06T09:03:57.457Z,81.78
2019-03-06T09:05:57.531Z,81.48
2019-03-06T09:07:57.561Z,80.43
2019-03-06T09:09:57.566Z,80.28
2019-03-06T09:11:57.364Z,78.41
2019-03-06T09:13:57.380Z,77.59
2019-03-06T09:15:57.524Z,77.34
2019-03-06T09:17:57.502Z,77.67
2019-03-06T09:19:57.409Z,78.11
2019-03-06T09:21:57.525Z,76.87
2019-03-06T09:23:57.576Z,76.79
2019-03-06T09:25:57.647Z,76.60
2019-03-06T09:27:57.674Z,74.84
2019-03-06T09:29:57.436Z,74.40
2019-03-06T09:31:57.588Z,74.77
2019-03-06T09:33:57.612Z,75.51
2019-03-06T09:35:57.912Z,74.70
2019-03-06T09:37:57.516Z,73.49
2019-03-06T09:39:57.451Z,73.25
2019-03-06T09:41:57.491Z,73.06
2019-03-06T09:43:57.452Z,71.45
2019-03-06T09:45:57.331Z,71.71
2019-03-06T09:47:57.474Z,72.56
2019-03-06T09:49:57.508Z,71.66
2019-03-06T09:51:57.521Z,72.56
2019-03-06T09:53:57.608Z,71.35
2019-03-06T09:55:57.641Z,71.11
2019-03-06T09:57:57.578Z,71.46
2019-03-06T09:59:57.605Z,71.02
2019-03-06T10:02:06.303Z,70.83
2019-03-06T10:03:57.413Z,68.85
2019-03-06T10:05:59.330Z,68.48
2019-03-06T10:07:57.655Z,67.15
2019-03-06T10:09:59.396Z,67.12
2019-03-06T10:11:57.626Z,67.91
2019-03-06T10:13:57.731Z,66.99
2019-03-06T10:15:57.502Z,64.50
2019-03-06T10:17:57.659Z,65.16
2019-03-06T10:19:57.676Z,64.53
2019-03-06T10:21:59.128Z,64.16
2019-03-06T10:23:57.649Z,64.60
2019-03-06T10:25:57.792Z,64.37
2019-03-06T10:28:05.959Z,63.74
2019-03-06T10:29:58.226Z,62.68
2019-03-06T10:31:57.375Z,63.12
2019-03-06T10:33:57.591Z,62.59
2019-03-06T10:35:57.651Z,62.92
2019-03-06T10:37:57.382Z,62.53
2019-03-06T10:39:57.875Z,62.59
2019-03-06T10:41:57.681Z,62.45
2019-03-06T10:43:57.694Z,62.88
2019-03-06T10:45:57.633Z,62.33
2019-03-06T10:47:57.474Z,62.89
2019-03-06T10:49:57.732Z,62.92
2019-03-06T10:51:57.746Z,62.86
2019-03-06T10:53:57.553Z,62.90
2019-03-06T10:55:57.775Z,62.55
2019-03-06T10:57:57.775Z,61.46
2019-03-06T10:59:57.784Z,61.72
2019-03-06T11:01:57.802Z,60.59
2019-03-06T11:03:57.608Z,59.84
2019-03-06T11:05:57.793Z,59.85
2019-03-06T11:07:57.830Z,60.08
2019-03-06T11:09:57.769Z,60.81
2019-03-06T11:11:57.649Z,61.25
2019-03-06T11:14:06.026Z,60.52
2019-03-06T11:15:57.687Z,60.29
2019-03-06T11:17:57.573Z,58.43
2019-03-06T11:19:57.703Z,57.53
2019-03-06T11:21:57.869Z,56.65
2019-03-06T11:23:57.479Z,56.46
2019-03-06T11:25:57.945Z,54.95
2019-03-06T11:27:57.685Z,53.99
2019-03-06T11:29:57.929Z,54.74
2019-03-06T11:31:57.728Z,54.50
2019-03-06T11:33:57.783Z,53.73
2019-03-06T11:35:57.724Z,53.98
2019-03-06T11:37:57.751Z,53.60
2019-03-06T11:39:57.742Z,55.05
2019-03-06T11:41:57.729Z,54.79
2019-03-06T11:43:58.195Z,55.29
2019-03-06T11:45:57.786Z,54.97
2019-03-06T11:47:57.780Z,54.41
2019-03-06T11:49:57.784Z,54.75
2019-03-06T11:51:57.827Z,55.25
2019-03-06T11:53:57.622Z,54.66
2019-03-06T11:55:57.917Z,54.87
2019-03-06T11:57:57.644Z,54.95
2019-03-06T11:59:57.930Z,56.01
2019-03-06T12:01:57.739Z,55.88
2019-03-06T12:03:57.747Z,55.58
2019-03-06T12:05:57.716Z,54.86
2019-03-06T12:07:57.775Z,54.95
2019-03-06T12:09:57.781Z,54.91
2019-03-06T12:11:57.649Z,54.02
2019-03-06T12:13:57.794Z,52.77
2019-03-06T12:15:57.819Z,52.17
2019-03-06T12:17:57.842Z,53.49
2019-03-06T12:19:57.849Z,53.65
2019-03-06T12:21:57.794Z,54.56
2019-03-06T12:23:57.862Z,52.49
2019-03-06T12:25:57.839Z,51.72
2019-03-06T12:27:57.902Z,50.69
2019-03-06T12:29:57.794Z,50.52
2019-03-06T12:31:57.796Z,49.22
2019-03-06T12:33:57.935Z,49.18
2019-03-06T12:35:57.935Z,50.44
2019-03-06T12:37:57.742Z,50.34
2019-03-06T12:39:57.752Z,50.34
2019-03-06T12:41:58.873Z,51.00
2019-03-06T12:43:57.706Z,50.09
2019-03-06T12:45:57.590Z,50.76
2019-03-06T12:47:57.548Z,50.35
2019-03-06T12:50:05.428Z,50.55
2019-03-06T12:51:57.788Z,50.93
2019-03-06T12:53:58.182Z,50.32
2019-03-06T12:55:57.766Z,49.62
2019-03-06T12:57:59.585Z,49.98
2019-03-06T12:59:57.875Z,49.86
2019-03-06T13:01:57.767Z,50.11
2019-03-06T13:03:57.840Z,49.93
2019-03-06T13:05:58.084Z,49.53
2019-03-06T13:07:57.881Z,49.71
2019-03-06T13:09:57.934Z,49.62
2019-03-06T13:11:58.220Z,49.16
2019-03-06T13:13:57.958Z,49.58
2019-03-06T13:15:57.896Z,50.09
2019-03-06T13:17:57.771Z,49.15
2019-03-06T13:19:57.726Z,50.09
2019-03-06T13:21:57.553Z,49.42
2019-03-06T13:23:58.012Z,49.52
2019-03-06T13:25:57.825Z,49.37
2019-03-06T13:27:57.769Z,49.92
2019-03-06T13:29:58.046Z,49.19
2019-03-06T13:31:57.858Z,49.22
2019-03-06T13:33:57.760Z,49.08
2019-03-06T13:35:58.121Z,49.49
2019-03-06T13:37:57.680Z,49.57
2019-03-06T13:39:57.833Z,50.43
2019-03-06T13:41:58.044Z,50.39
2019-03-06T13:43:57.731Z,50.37
2019-03-06T13:45:57.824Z,50.50
2019-03-06T13:47:57.948Z,50.06
2019-03-06T13:49:57.877Z,49.44
2019-03-06T13:51:57.980Z,49.15
2019-03-06T13:53:57.981Z,49.35
2019-03-06T13:55:57.998Z,49.41
2019-03-06T13:57:57.804Z,49.03
2019-03-06T13:59:57.585Z,49.91
2019-03-06T14:01:57.744Z,48.62
2019-03-06T14:03:57.969Z,48.98
2019-03-06T14:05:57.852Z,48.84
2019-03-06T14:07:57.809Z,48.88
2019-03-06T14:09:57.817Z,49.06
2019-03-06T14:11:57.854Z,48.07
2019-03-06T14:13:58.101Z,48.60
2019-03-06T14:15:57.844Z,48.60
2019-03-06T14:17:57.878Z,48.48
2019-03-06T14:19:57.933Z,48.73
2019-03-06T14:21:57.741Z,48.37
2019-03-06T14:23:57.754Z,47.85
2019-03-06T14:25:57.967Z,47.81
2019-03-06T14:27:57.775Z,48.32
2019-03-06T14:29:57.989Z,48.76
2019-03-06T14:31:57.886Z,49.07
2019-03-06T14:33:57.908Z,48.92
2019-03-06T14:35:57.918Z,48.99
2019-03-06T14:37:57.751Z,49.11
2019-03-06T14:39:59.388Z,49.63
2019-03-06T14:41:57.606Z,49.48
2019-03-06T14:43:57.761Z,49.37
2019-03-06T14:45:57.840Z,49.65
2019-03-06T14:47:57.896Z,50.01
2019-03-06T14:49:57.902Z,50.05
2019-03-06T14:52:06.673Z,46.90
2019-03-06T14:53:57.765Z,47.47
2019-03-06T14:55:57.936Z,46.32
2019-03-06T14:57:57.848Z,45.82
2019-03-06T14:59:57.965Z,45.20
2019-03-06T15:01:57.921Z,43.16
2019-03-06T15:03:57.986Z,43.47
2019-03-06T15:05:58.003Z,43.35
2019-03-06T15:07:58.011Z,43.70
2019-03-06T15:09:58.019Z,44.45
2019-03-06T15:11:58.007Z,43.35
2019-03-06T15:13:58.011Z,43.74
2019-03-06T15:15:57.969Z,44.27
2019-03-06T15:17:57.848Z,44.44
2019-03-06T15:19:57.869Z,44.30
2019-03-06T15:21:57.783Z,44.69
2019-03-06T15:23:57.681Z,44.60
2019-03-06T15:25:57.781Z,45.36
2019-03-06T15:27:57.929Z,45.27
2019-03-06T15:29:57.936Z,45.42
2019-03-06T15:31:57.947Z,45.75
2019-03-06T15:33:57.953Z,45.59
2019-03-06T15:35:57.962Z,45.58
2019-03-06T15:37:57.981Z,45.53
2019-03-06T15:39:58.190Z,45.87
2019-03-06T15:42:00.625Z,44.88
2019-03-06T15:43:57.808Z,44.91
2019-03-06T15:45:57.965Z,44.57
2019-03-06T15:47:59.387Z,45.12
2019-03-06T15:49:57.939Z,45.25
2019-03-06T15:51:58.058Z,44.57
2019-03-06T15:53:58.008Z,44.66
2019-03-06T15:55:58.093Z,44.66
2019-03-06T15:57:58.106Z,44.41
2019-03-06T15:59:57.900Z,44.75
2019-03-06T16:01:58.032Z,44.02
2019-03-06T16:03:58.332Z,44.48
2019-03-06T16:05:57.734Z,44.74
2019-03-06T16:07:57.712Z,44.78
2019-03-06T16:09:58.068Z,45.53
2019-03-06T16:11:57.939Z,45.38
2019-03-06T16:13:57.778Z,45.16
2019-03-06T16:15:57.969Z,45.68
2019-03-06T16:17:58.009Z,45.36
2019-03-06T16:19:57.973Z,45.71
2019-03-06T16:21:58.027Z,45.05
2019-03-06T16:23:58.005Z,45.50
2019-03-06T16:25:57.982Z,45.84
2019-03-06T16:27:58.065Z,45.90
2019-03-06T16:29:58.077Z,46.06
2019-03-06T16:31:59.394Z,45.93
2019-03-06T16:33:58.015Z,46.47
2019-03-06T16:35:58.113Z,46.61
2019-03-06T16:37:57.816Z,46.96
2019-03-06T16:39:58.078Z,47.13
2019-03-06T16:41:58.350Z,47.07
2019-03-06T16:43:57.957Z,46.81
2019-03-06T16:45:57.970Z,47.37
2019-03-06T16:47:57.977Z,47.19
2019-03-06T16:49:57.936Z,47.58
2019-03-06T16:51:58.001Z,47.59
2019-03-06T16:53:58.016Z,47.72
2019-03-06T16:55:57.979Z,47.85
2019-03-06T16:57:58.046Z,48.01
2019-03-06T16:59:58.047Z,48.11
2019-03-06T17:01:58.004Z,48.29
2019-03-06T17:03:58.274Z,48.70
2019-03-06T17:05:58.085Z,48.59
2019-03-06T17:07:58.235Z,48.62
2019-03-06T17:09:58.024Z,48.78
2019-03-06T17:11:58.112Z,48.95
2019-03-06T17:13:57.878Z,49.03
2019-03-06T17:15:58.186Z,49.94
2019-03-06T17:17:57.890Z,50.06
2019-03-06T17:19:57.968Z,49.71
2019-03-06T17:21:57.978Z,49.95
2019-03-06T17:23:57.988Z,50.43
2019-03-06T17:25:58.000Z,50.68
2019-03-06T17:27:57.988Z,50.98
2019-03-06T17:29:57.977Z,50.80
2019-03-06T17:31:58.042Z,51.27
2019-03-06T17:33:57.976Z,51.40
2019-03-06T17:35:58.033Z,51.57
2019-03-06T17:37:57.982Z,51.98
2019-03-06T17:39:58.077Z,53.87
2019-03-06T17:41:58.224Z,55.34
2019-03-06T17:43:58.002Z,55.64
2019-03-06T17:45:58.110Z,57.47
2019-03-06T17:47:58.213Z,57.36
2019-03-06T17:49:58.339Z,58.56
2019-03-06T17:51:58.096Z,59.22
2019-03-06T17:53:58.085Z,60.43
2019-03-06T17:55:58.049Z,61.15
2019-03-06T17:58:00.745Z,63.40
2019-03-06T17:59:57.789Z,64.02
2019-03-06T18:01:57.912Z,65.18
2019-03-06T18:03:58.421Z,66.57
2019-03-06T18:05:58.432Z,66.96
2019-03-06T18:07:58.448Z,67.43
2019-03-06T18:09:58.460Z,68.15
2019-03-06T18:11:59.074Z,69.31
2019-03-06T18:13:58.480Z,69.89
2019-03-06T18:15:58.494Z,70.03
2019-03-06T18:17:58.482Z,70.31
2019-03-06T18:19:59.457Z,71.19
2019-03-06T18:21:58.658Z,72.12
2019-03-06T18:23:58.543Z,72.85
2019-03-06T18:25:58.553Z,72.63
2019-03-06T18:27:58.559Z,73.47
2019-03-06T18:29:58.578Z,74.23
2019-03-06T18:31:58.589Z,74.32
2019-03-06T18:33:58.602Z,76.09
2019-03-06T18:35:59.108Z,76.51
2019-03-06T18:37:58.505Z,77.17
2019-03-06T18:39:58.427Z,77.58
2019-03-06T18:41:58.493Z,77.99
2019-03-06T18:43:58.198Z,78.29
2019-03-06T18:45:58.664Z,78.36
2019-03-06T18:47:58.471Z,79.02
2019-03-06T18:49:58.391Z,79.21
2019-03-06T18:51:58.248Z,79.39
2019-03-06T18:53:58.505Z,79.24
2019-03-06T18:55:58.523Z,79.74
2019-03-06T18:57:58.287Z,80.01
2019-03-06T18:59:58.293Z,80.35
2019-03-06T19:01:58.553Z,80.67
2019-03-06T19:03:58.662Z,81.40
2019-03-06T19:05:58.330Z,81.73
2019-03-06T19:07:58.449Z,82.12
2019-03-06T19:09:58.490Z,82.44
2019-03-06T19:11:58.618Z,83.19
2019-03-06T19:13:58.469Z,84.31
2019-03-06T19:15:58.300Z,84.42
2019-03-06T19:17:58.646Z,86.02
2019-03-06T19:19:58.347Z,86.38
2019-03-06T19:21:58.676Z,86.22
2019-03-06T19:23:58.265Z,85.97
2019-03-06T19:25:58.490Z,86.10
2019-03-06T19:27:58.424Z,86.35
2019-03-06T19:29:58.514Z,86.40
2019-03-06T19:31:58.530Z,86.03
2019-03-06T19:33:58.422Z,86.27
2019-03-06T19:35:58.476Z,86.61
2019-03-06T19:37:58.567Z,86.29
2019-03-06T19:39:58.577Z,86.88
2019-03-06T19:41:58.581Z,87.49
2019-03-06T19:43:58.469Z,87.57
2019-03-06T19:45:58.610Z,88.02
2019-03-06T19:47:58.517Z,88.00
2019-03-06T19:49:58.536Z,88.08
2019-03-06T19:51:58.641Z,88.08
2019-03-06T19:53:59.789Z,88.58
2019-03-06T19:55:58.351Z,88.85
2019-03-06T19:57:58.373Z,88.99
2019-03-06T20:00:02.145Z,89.29
2019-03-06T20:02:20.115Z,89.33
2019-03-06T20:04:02.703Z,89.47
2019-03-06T20:05:59.946Z,89.59
2019-03-06T20:08:03.240Z,89.99
2019-03-06T20:10:04.409Z,90.26
2019-03-06T20:12:08.680Z,90.23
2019-03-06T20:13:58.570Z,90.32
2019-03-06T20:15:58.468Z,90.71
2019-03-06T20:17:58.798Z,90.70
2019-03-06T20:20:05.035Z,90.82
2019-03-06T20:21:58.504Z,91.08
2019-03-06T20:24:08.011Z,91.06
2019-03-06T20:25:59.780Z,91.33
2019-03-06T20:28:04.591Z,91.23
2019-03-06T20:29:59.693Z,91.34
2019-03-06T20:32:20.504Z,91.45
2019-03-06T20:34:02.909Z,91.61
2019-03-06T20:35:59.474Z,91.50
2019-03-06T20:38:02.699Z,91.62
2019-03-06T20:40:19.924Z,91.90
2019-03-06T20:42:03.381Z,91.87
2019-03-06T20:44:20.250Z,92.12
2019-03-06T20:46:05.720Z,92.08
2019-03-06T20:47:58.661Z,92.05
2019-03-06T20:50:20.295Z,92.48
2019-03-06T20:52:01.861Z,92.32
2019-03-06T20:54:19.726Z,92.35
2019-03-06T20:56:19.937Z,92.43
2019-03-06T20:57:58.528Z,92.50
2019-03-06T21:00:01.878Z,92.38
2019-03-06T21:02:03.383Z,92.59
2019-03-06T21:04:02.122Z,92.87
2019-03-06T21:06:01.985Z,92.83
2019-03-06T21:07:58.575Z,92.97
2019-03-06T21:10:03.635Z,92.85
2019-03-06T21:12:03.467Z,92.81
2019-03-06T21:14:02.998Z,93.04
2019-03-06T21:16:05.096Z,93.08
2019-03-06T21:17:59.645Z,93.01
2019-03-06T21:19:59.974Z,93.24
2019-03-06T21:21:58.400Z,92.98
2019-03-06T21:24:03.310Z,93.19
2019-03-06T21:25:59.675Z,93.37
2019-03-06T21:28:01.328Z,93.29
2019-03-06T21:30:07.192Z,93.26
2019-03-06T21:31:59.696Z,93.92
2019-03-06T21:34:02.347Z,94.00
2019-03-06T21:35:58.096Z,94.26
2019-03-06T21:38:01.110Z,94.27
2019-03-06T21:39:58.566Z,94.24
2019-03-06T21:41:58.780Z,94.23
2019-03-06T21:43:58.503Z,94.05
2019-03-06T21:45:58.601Z,93.91
2019-03-06T21:47:59.956Z,93.97
2019-03-06T21:49:58.613Z,93.99
2019-03-06T21:51:59.771Z,93.83
2019-03-06T21:54:00.026Z,94.23
2019-03-06T21:56:00.596Z,94.20
2019-03-06T21:57:59.423Z,94.29
2019-03-06T21:59:58.698Z,94.00
2019-03-06T22:01:58.893Z,94.14
2019-03-06T22:03:58.698Z,94.38
2019-03-06T22:05:58.532Z,94.30
2019-03-06T22:07:58.611Z,94.42
2019-03-06T22:09:58.529Z,94.61
2019-03-06T22:11:58.841Z,94.46
2019-03-06T22:13:59.684Z,94.25
2019-03-06T22:15:58.473Z,94.25
2019-03-06T22:17:59.799Z,94.19
2019-03-06T22:19:59.714Z,94.19
2019-03-06T22:21:58.523Z,93.89
2019-03-06T22:23:58.612Z,93.74
2019-03-06T22:25:59.757Z,93.68
2019-03-06T22:27:58.551Z,93.69
2019-03-06T22:29:59.873Z,93.91
2019-03-06T22:31:59.790Z,93.62
2019-03-06T22:33:58.159Z,93.76
2019-03-06T22:35:58.680Z,93.54
2019-03-06T22:37:57.991Z,93.78
2019-03-06T22:39:58.224Z,93.91
2019-03-06T22:41:58.727Z,93.76
2019-03-06T22:43:58.077Z,93.72
2019-03-06T22:45:58.662Z,93.87
2019-03-06T22:47:58.917Z,93.95
2019-03-06T22:49:58.364Z,93.76
2019-03-06T22:51:58.078Z,94.09
2019-03-06T22:53:58.502Z,93.88
2019-03-06T22:55:59.824Z,94.14
2019-03-06T22:57:59.150Z,94.20
2019-03-06T22:59:58.408Z,93.94
2019-03-06T23:01:58.551Z,94.32
2019-03-06T23:03:58.121Z,94.17
2019-03-06T23:05:59.295Z,94.36
2019-03-06T23:07:58.366Z,94.41
2019-03-06T23:09:59.694Z,94.62
2019-03-06T23:11:58.445Z,94.44
2019-03-06T23:13:58.617Z,94.44
2019-03-06T23:15:58.235Z,94.82
2019-03-06T23:17:58.505Z,95.26
2019-03-06T23:19:58.738Z,95.13
2019-03-06T23:21:59.732Z,95.41
2019-03-06T23:23:58.478Z,95.40
2019-03-06T23:25:58.357Z,95.55
2019-03-06T23:27:58.774Z,95.44
2019-03-06T23:29:58.177Z,95.36
2019-03-06T23:31:58.188Z,95.50
2019-03-06T23:33:58.202Z,95.36
2019-03-06T23:35:58.547Z,95.66
2019-03-06T23:37:58.228Z,95.72
2019-03-06T23:39:57.948Z,95.51
2019-03-06T23:41:58.242Z,95.63
2019-03-06T23:43:58.362Z,95.73
2019-03-06T23:45:58.154Z,95.60
2019-03-06T23:47:59.628Z,95.78
2019-03-06T23:49:58.296Z,95.60
2019-03-06T23:51:58.212Z,95.82
2019-03-06T23:53:58.315Z,95.78
2019-03-06T23:55:58.332Z,96.01
2019-03-06T23:57:58.244Z,96.54
2019-03-06T23:59:58.347Z,96.01
